Time;durP1;ratioP1;P1;durP2;ratioP2;P2;SDS_P1;SDS_P2;PMS_P1;PMS_P2;Temp;Humidity;BMP_temperature;BMP_pressure;BME280_temperature;BME280_humidity;BME280_pressure;Samples;Min_cycle;Max_cycle;Signal;HPM_P1;HPM_P2
2023/07/11 00:00:55;;;;;;;3.58;1.75;;;;;;;20.20;61.26;101551.38;5030103;28;20035;-91
2023/07/11 00:03:20;;;;;;;5.78;2.00;;;;;;;20.16;61.69;101550.69;5031410;28;20025;-91
2023/07/11 00:06:00;;;;;;;3.13;1.80;;;;;;;20.14;61.16;101544.63;5024791;28;20029;-91
2023/07/11 00:08:25;;;;;;;3.95;1.98;;;;;;;20.08;62.00;101542.31;5013258;28;20077;-91
2023/07/11 00:10:51;;;;;;;5.03;2.47;;;;;;;20.08;61.79;101548.47;5013344;28;20461;-91
2023/07/11 00:13:16;;;;;;;3.50;2.00;;;;;;;20.04;61.70;101541.66;5013168;28;20044;-91
2023/07/11 00:15:41;;;;;;;3.03;1.85;;;;;;;20.02;61.73;101536.47;5002608;28;20033;-90
2023/07/11 00:18:06;;;;;;;4.35;2.08;;;;;;;20.02;61.96;101532.94;5012803;28;20036;-91
2023/07/11 00:20:32;;;;;;;3.53;1.77;;;;;;;20.00;61.99;101530.41;5013117;28;20409;-90
2023/07/11 00:22:57;;;;;;;3.88;1.90;;;;;;;20.00;62.51;101533.03;5012795;28;20022;-90
2023/07/11 00:25:22;;;;;;;4.35;1.80;;;;;;;19.99;62.31;101526.06;5022680;28;20439;-91
2023/07/11 00:27:48;;;;;;;4.05;2.08;;;;;;;19.98;61.94;101524.34;5031493;28;20035;-91
2023/07/11 00:30:13;;;;;;;3.28;1.73;;;;;;;19.98;62.21;101523.50;5029848;28;20386;-90
2023/07/11 00:32:38;;;;;;;3.55;2.10;;;;;;;19.96;62.39;101523.56;5012908;28;20036;-90
2023/07/11 00:35:04;;;;;;;3.42;1.83;;;;;;;19.95;62.45;101516.59;5012643;28;20033;-91
2023/07/11 00:37:29;;;;;;;3.42;1.90;;;;;;;19.95;62.20;101521.03;5022765;28;20118;-91
2023/07/11 00:39:54;;;;;;;3.30;1.95;;;;;;;19.94;62.76;101522.81;5031033;28;20108;-90
2023/07/11 00:42:20;;;;;;;4.00;1.95;;;;;;;19.91;62.67;101515.03;5021595;28;20479;-90
2023/07/11 00:44:48;;;;;;;5.35;2.10;;;;;;;19.89;62.76;101513.44;5013653;28;20026;-92
2023/07/11 00:47:13;;;;;;;4.13;2.03;;;;;;;19.86;62.94;101517.91;5020217;28;20033;-91
2023/07/11 00:49:38;;;;;;;4.28;1.80;;;;;;;19.86;62.80;101514.44;5020627;28;20100;-91
2023/07/11 00:52:04;;;;;;;3.35;1.95;;;;;;;19.84;63.40;101513.66;4997357;28;20029;-91
2023/07/11 00:54:33;;;;;;;2.30;1.67;;;;;;;19.83;63.00;101515.44;5025979;28;20017;-91
2023/07/11 00:57:02;;;;;;;4.18;1.83;;;;;;;19.81;63.19;101522.56;5022558;28;20389;-90
2023/07/11 00:59:27;;;;;;;3.40;1.70;;;;;;;19.82;63.39;101515.53;5015998;28;20115;-91
2023/07/11 01:02:07;;;;;;;5.95;2.20;;;;;;;19.80;62.78;101518.25;5027897;28;20049;-91
2023/07/11 01:04:32;;;;;;;3.15;1.73;;;;;;;19.80;63.91;101518.25;5023835;28;20049;-92
2023/07/11 01:06:57;;;;;;;3.67;2.13;;;;;;;19.79;64.28;101515.69;5017374;28;20034;-90
2023/07/11 01:09:23;;;;;;;4.25;1.88;;;;;;;19.76;64.75;101519.34;5016112;28;20033;-92
2023/07/11 01:11:57;;;;;;;4.50;2.05;;;;;;;19.71;63.41;101516.09;5016683;28;20021;-90
2023/07/11 01:14:24;;;;;;;4.68;2.00;;;;;;;19.70;63.83;101522.31;5015044;28;20022;-92
2023/07/11 01:16:50;;;;;;;4.20;2.20;;;;;;;19.68;64.20;101514.50;5012939;28;20030;-91
2023/07/11 01:19:15;;;;;;;5.38;2.20;;;;;;;19.66;64.87;101520.75;5017369;28;20041;-92
2023/07/11 01:21:41;;;;;;;2.85;2.10;;;;;;;19.63;64.54;101515.69;5019680;28;20021;-91
2023/07/11 01:24:06;;;;;;;5.57;2.17;;;;;;;19.59;65.17;101516.75;5022639;28;20033;-91
2023/07/11 01:26:32;;;;;;;5.72;2.28;;;;;;;19.54;64.66;101512.56;5014394;28;20464;-91
2023/07/11 01:28:57;;;;;;;4.18;2.20;;;;;;;19.46;65.21;101514.78;5002099;28;20025;-91
2023/07/11 01:31:22;;;;;;;3.00;1.92;;;;;;;19.38;64.81;101512.53;5012609;28;20029;-91
2023/07/11 01:33:48;;;;;;;3.55;2.20;;;;;;;19.33;65.42;101513.69;5014786;28;20026;-91
2023/07/11 01:36:13;;;;;;;4.97;2.30;;;;;;;19.26;66.16;101508.75;5029633;28;20060;-91
2023/07/11 01:38:39;;;;;;;3.88;2.10;;;;;;;19.17;66.97;101513.66;5021842;28;20033;-91
2023/07/11 01:41:04;;;;;;;4.53;2.38;;;;;;;19.16;66.45;101507.50;5012976;28;20022;-91
2023/07/11 01:43:29;;;;;;;3.65;2.25;;;;;;;19.10;66.38;101498.13;5027725;28;20067;-92
2023/07/11 01:45:55;;;;;;;4.38;2.22;;;;;;;19.03;67.23;101495.88;5016655;28;20030;-91
2023/07/11 01:48:20;;;;;;;4.72;1.92;;;;;;;18.99;66.93;101497.84;5005729;28;20077;-91
2023/07/11 01:50:45;;;;;;;3.40;2.38;;;;;;;18.97;67.03;101491.78;5021113;28;20533;-90
2023/07/11 01:53:10;;;;;;;5.50;1.95;;;;;;;18.94;67.49;101484.91;5013136;28;20140;-91
2023/07/11 01:55:37;;;;;;;4.68;2.30;;;;;;;18.88;67.33;101485.16;5025870;28;20422;-91
2023/07/11 01:58:03;;;;;;;3.20;2.10;;;;;;;18.80;68.14;101475.00;5023486;28;20037;-92
2023/07/11 02:00:28;;;;;;;4.00;2.10;;;;;;;18.77;67.82;101475.16;5023815;28;20103;-92
2023/07/11 02:02:54;;;;;;;3.92;2.30;;;;;;;18.74;70.50;101474.47;5028565;28;20064;-91
2023/07/11 02:05:19;;;;;;;4.13;2.22;;;;;;;18.70;68.68;101467.63;5025092;28;20116;-91
2023/07/11 02:07:45;;;;;;;3.47;2.10;;;;;;;18.64;68.49;101469.63;5008935;28;20124;-91
2023/07/11 02:10:10;;;;;;;5.45;2.40;;;;;;;18.62;69.28;101465.38;5027589;28;20485;-91
2023/07/11 02:12:35;;;;;;;4.40;2.20;;;;;;;18.55;69.36;101461.34;5023299;28;20036;-91
2023/07/11 02:15:01;;;;;;;4.18;2.30;;;;;;;18.50;68.91;101462.44;5021072;28;20021;-91
2023/07/11 02:17:26;;;;;;;5.20;2.30;;;;;;;18.45;69.71;101458.31;5016780;28;20057;-91
2023/07/11 02:19:51;;;;;;;3.80;2.30;;;;;;;18.43;70.82;101447.84;5015620;28;20452;-91
2023/07/11 02:22:17;;;;;;;3.65;2.28;;;;;;;18.44;71.56;101452.19;5021525;28;20083;-91
2023/07/11 02:24:42;;;;;;;5.95;2.45;;;;;;;18.44;71.67;101457.47;5017916;28;20433;-91
2023/07/11 02:27:08;;;;;;;4.20;2.30;;;;;;;18.42;71.01;101453.22;5019421;28;20029;-92
2023/07/11 02:29:34;;;;;;;4.53;2.25;;;;;;;18.35;71.60;101453.50;5017288;28;20470;-91
2023/07/11 02:31:59;;;;;;;4.63;2.30;;;;;;;18.33;71.65;101442.19;5016461;28;20018;-90
2023/07/11 02:34:25;;;;;;;3.75;2.50;;;;;;;18.32;71.54;101440.47;5030226;28;20516;-90
2023/07/11 02:36:51;;;;;;;4.00;2.63;;;;;;;18.30;70.21;101442.31;5020523;28;20054;-91
2023/07/11 02:39:16;;;;;;;3.72;2.45;;;;;;;18.23;70.94;101432.16;5007664;28;20040;-92
2023/07/11 02:41:42;;;;;;;3.28;2.45;;;;;;;18.17;71.00;101430.69;5017849;28;20044;-91
2023/07/11 02:44:08;;;;;;;4.70;2.40;;;;;;;18.12;70.74;101440.56;5026545;28;20532;-92
2023/07/11 02:46:34;;;;;;;3.38;2.22;;;;;;;18.07;70.90;101432.06;5031423;28;20033;-90
2023/07/11 02:48:59;;;;;;;4.65;2.70;;;;;;;18.03;71.30;101432.22;5015469;28;20496;-91
2023/07/11 02:51:24;;;;;;;3.78;2.13;;;;;;;18.00;71.33;101420.97;5018342;28;20029;-91
2023/07/11 02:53:50;;;;;;;4.25;2.50;;;;;;;17.94;71.37;101422.06;5017618;28;20109;-91
2023/07/11 02:56:18;;;;;;;4.40;2.55;;;;;;;17.86;70.21;101413.69;5014892;28;20026;-91
2023/07/11 02:58:44;;;;;;;4.97;2.25;;;;;;;17.84;70.85;101405.00;5014695;28;20374;-92
2023/07/11 03:01:10;;;;;;;9.55;2.65;;;;;;;17.80;70.54;101406.09;5007910;28;20028;-91
2023/07/11 03:03:35;;;;;;;4.80;2.38;;;;;;;17.77;70.91;101408.84;5024577;28;20025;-92
2023/07/11 03:06:00;;;;;;;5.65;2.85;;;;;;;17.70;71.42;101401.25;5030378;28;20029;-90
2023/07/11 03:08:26;;;;;;;6.75;2.78;;;;;;;17.69;71.66;101398.69;5025975;28;20032;-91
2023/07/11 03:10:51;;;;;;;3.72;2.30;;;;;;;17.69;71.77;101388.16;5018645;28;20492;-92
2023/07/11 03:13:18;;;;;;;5.07;2.38;;;;;;;17.64;71.14;101393.66;5015083;28;20478;-91
2023/07/11 03:15:43;;;;;;;4.38;2.80;;;;;;;17.61;71.87;101388.53;5021196;28;20052;-90
2023/07/11 03:18:10;;;;;;;5.20;2.40;;;;;;;17.58;72.65;101383.44;5022422;28;20358;-92
2023/07/11 03:20:37;;;;;;;3.67;2.45;;;;;;;17.56;72.96;101388.75;5021104;28;20472;-91
2023/07/11 03:23:02;;;;;;;5.40;2.65;;;;;;;17.57;73.10;101381.72;5022230;28;20037;-90
2023/07/11 03:25:28;;;;;;;4.65;2.65;;;;;;;17.58;73.71;101380.78;5020708;28;20025;-91
2023/07/11 03:27:53;;;;;;;3.90;2.53;;;;;;;17.59;73.45;101379.88;5020912;28;20116;-91
2023/07/11 03:30:18;;;;;;;5.53;2.67;;;;;;;17.61;73.42;101378.00;5029993;28;20029;-92
2023/07/11 03:32:44;;;;;;;4.25;2.75;;;;;;;17.60;73.84;101373.66;4997011;28;20025;-91
2023/07/11 03:35:09;;;;;;;3.80;2.55;;;;;;;17.61;73.16;101380.63;5028402;28;20049;-91
2023/07/11 03:37:34;;;;;;;5.03;2.72;;;;;;;17.60;73.06;101373.66;5020403;28;20509;-92
2023/07/11 03:40:00;;;;;;;4.55;3.00;;;;;;;17.56;73.18;101365.06;5016530;28;20028;-92
2023/07/11 03:42:25;;;;;;;4.43;2.90;;;;;;;17.55;73.06;101365.16;5007946;28;20022;-92
2023/07/11 03:44:51;;;;;;;6.07;3.13;;;;;;;17.53;73.27;101374.88;5014428;28;20104;-91
2023/07/11 03:47:16;;;;;;;5.40;3.08;;;;;;;17.51;73.59;101374.09;5014207;28;20080;-90
2023/07/11 03:49:41;;;;;;;5.60;2.85;;;;;;;17.50;73.82;101375.91;5020422;28;20036;-90
2023/07/11 03:52:07;;;;;;;5.30;3.20;;;;;;;17.51;73.60;101376.72;4999863;28;20432;-91
2023/07/11 03:54:32;;;;;;;10.13;2.83;;;;;;;17.48;73.62;101369.84;5023277;28;20489;-91
2023/07/11 03:56:57;;;;;;;5.20;3.05;;;;;;;17.48;74.43;101374.25;5015660;28;20030;-91
2023/07/11 03:59:22;;;;;;;5.43;2.78;;;;;;;17.49;74.38;101373.31;5040501;28;20025;-90
2023/07/11 04:01:48;;;;;;;5.53;2.72;;;;;;;17.52;74.39;101381.91;5019994;28;20374;-90
2023/07/11 04:04:13;;;;;;;7.55;3.00;;;;;;;17.56;74.41;101372.13;5024818;28;20032;-90
2023/07/11 04:06:39;;;;;;;10.23;3.05;;;;;;;17.57;74.23;101372.03;5014037;28;20033;-91
2023/07/11 04:09:05;;;;;;;12.63;3.30;;;;;;;17.59;74.24;101364.09;5024013;28;20025;-90
2023/07/11 04:11:30;;;;;;;21.35;3.17;;;;;;;17.60;74.37;101361.38;5020521;28;20033;-90
2023/07/11 04:13:55;;;;;;;6.90;3.00;;;;;;;17.63;74.11;101355.09;5014054;28;20113;-91
2023/07/11 04:16:20;;;;;;;5.68;3.00;;;;;;;17.67;74.45;101363.72;5013915;28;20022;-91
2023/07/11 04:18:46;;;;;;;4.53;3.05;;;;;;;17.70;74.35;101358.28;5013383;28;20079;-91
2023/07/11 04:21:11;;;;;;;6.38;2.97;;;;;;;17.72;74.08;101357.31;5013748;28;20035;-92
2023/07/11 04:23:37;;;;;;;7.03;3.10;;;;;;;17.75;73.79;101359.81;5018056;28;21516;-91
2023/07/11 04:26:02;;;;;;;9.30;3.03;;;;;;;17.79;73.88;101355.25;5020764;28;20400;-90
2023/07/11 04:28:27;;;;;;;17.02;3.70;;;;;;;17.82;74.07;101355.09;4997684;28;20496;-91
2023/07/11 04:30:52;;;;;;;4.78;3.05;;;;;;;17.86;73.84;101345.25;5012880;28;20032;-91
2023/07/11 04:33:18;;;;;;;5.90;2.97;;;;;;;17.89;73.41;101345.13;4997360;28;20552;-90
2023/07/11 04:35:44;;;;;;;4.78;3.15;;;;;;;17.92;73.61;101344.97;5018582;28;20158;-91
2023/07/11 04:38:09;;;;;;;14.45;2.97;;;;;;;17.98;73.52;101346.47;5027017;28;20244;-91
2023/07/11 04:40:34;;;;;;;15.13;3.22;;;;;;;18.02;72.96;101332.22;5015331;28;20120;-91
2023/07/11 04:43:00;;;;;;;13.05;3.08;;;;;;;18.07;73.24;101334.66;5012581;28;20026;-91
2023/07/11 04:45:26;;;;;;;5.68;3.15;;;;;;;18.09;72.71;101335.44;5029435;28;20083;-91
2023/07/11 04:47:51;;;;;;;5.38;3.13;;;;;;;18.12;72.25;101330.84;5015357;28;20105;-91
2023/07/11 04:50:16;;;;;;;4.45;2.90;;;;;;;18.16;72.23;101326.28;5018341;28;20039;-90
2023/07/11 04:52:43;;;;;;;9.85;3.08;;;;;;;18.20;72.25;101325.19;5013517;28;20029;-91
2023/07/11 04:55:09;;;;;;;10.45;2.97;;;;;;;18.24;71.86;101321.50;5023153;28;20029;-90
2023/07/11 04:57:34;;;;;;;6.35;3.08;;;;;;;18.29;72.33;101327.34;5013999;28;20112;-91
2023/07/11 04:59:59;;;;;;;14.00;3.35;;;;;;;18.32;71.93;101316.66;5023902;28;20057;-91
2023/07/11 05:02:25;;;;;;;5.47;2.95;;;;;;;18.35;71.63;101311.25;5020176;28;20092;-91
2023/07/11 05:04:50;;;;;;;5.25;3.17;;;;;;;18.39;71.34;101313.72;4995527;28;20060;-91
2023/07/11 05:07:15;;;;;;;10.18;3.83;;;;;;;18.43;71.91;101313.50;5015131;28;20030;-90
2023/07/11 05:09:41;;;;;;;6.20;3.00;;;;;;;18.46;71.67;101313.34;5013294;28;20049;-90
2023/07/11 05:12:07;;;;;;;7.03;3.05;;;;;;;18.52;71.30;101311.31;5024734;28;20037;-91
2023/07/11 05:14:32;;;;;;;4.28;2.88;;;;;;;18.55;71.01;101312.00;5016456;28;20045;-91
2023/07/11 05:16:58;;;;;;;11.63;3.30;;;;;;;18.61;70.88;101309.06;5012406;28;20034;-91
2023/07/11 05:19:23;;;;;;;5.32;2.90;;;;;;;18.64;70.56;101306.25;5012193;28;20491;-91
2023/07/11 05:21:48;;;;;;;4.38;2.80;;;;;;;18.69;69.65;101302.53;5020228;28;20029;-91
2023/07/11 05:24:13;;;;;;;5.47;2.78;;;;;;;18.74;70.12;101293.44;5017206;28;20038;-91
2023/07/11 05:26:39;;;;;;;5.60;2.90;;;;;;;18.78;69.70;101294.97;5000978;28;20022;-91
2023/07/11 05:29:05;;;;;;;5.03;2.67;;;;;;;18.85;69.01;101294.66;5025481;28;20021;-92
2023/07/11 05:31:30;;;;;;;6.18;2.60;;;;;;;18.89;69.62;101289.13;5041830;28;20025;-90
2023/07/11 05:33:55;;;;;;;4.50;2.70;;;;;;;18.95;68.64;101282.72;5020467;28;20018;-91
2023/07/11 05:38:51;;;;;;;11.40;2.88;;;;;;;19.05;69.42;101278.63;5019201;28;20026;-90
2023/07/11 05:41:16;;;;;;;9.82;2.70;;;;;;;19.10;68.19;101278.41;5020113;28;21413;-91
2023/07/11 05:43:42;;;;;;;7.20;2.70;;;;;;;19.16;68.83;101280.69;5002799;28;20025;-91
2023/07/11 05:46:07;;;;;;;9.63;2.60;;;;;;;19.21;67.37;101276.00;5023089;28;20056;-91
2023/07/11 05:48:32;;;;;;;9.85;2.55;;;;;;;19.29;68.06;101278.22;5023447;28;20044;-91
2023/07/11 05:51:02;;;;;;;8.18;2.40;;;;;;;19.32;66.76;101272.78;5020890;28;20049;-92
2023/07/11 05:53:28;;;;;;;8.95;2.50;;;;;;;19.40;67.67;101278.47;5023948;28;20417;-91
2023/07/11 05:55:55;;;;;;;8.32;2.45;;;;;;;19.45;66.21;101270.31;5005157;28;20489;-90
2023/07/11 05:58:20;;;;;;;6.30;2.30;;;;;;;19.53;66.45;101269.88;5024464;28;20030;-92
2023/07/11 06:00:45;;;;;;;9.15;2.40;;;;;;;19.59;65.58;101266.03;5023177;28;20036;-91
2023/07/11 06:03:10;;;;;;;8.38;2.33;;;;;;;19.63;65.95;101263.13;5020470;28;20036;-90
2023/07/11 06:05:36;;;;;;;3.95;2.13;;;;;;;19.68;66.17;101254.94;5022486;28;20148;-91
2023/07/11 06:08:01;;;;;;;8.02;2.38;;;;;;;19.73;66.23;101258.16;5020051;28;20492;-91
2023/07/11 06:10:28;;;;;;;7.13;3.05;;;;;;;19.78;66.11;101252.63;5006004;28;20131;-91
2023/07/11 06:12:53;;;;;;;9.00;2.35;;;;;;;19.83;65.79;101254.03;5023849;28;20057;-91
2023/07/11 06:15:18;;;;;;;7.80;2.22;;;;;;;19.90;66.28;101240.53;5015874;28;20057;-91
2023/07/11 06:17:43;;;;;;;4.75;2.22;;;;;;;19.96;65.42;101245.44;5019639;28;20514;-89
2023/07/11 06:20:09;;;;;;;8.70;2.30;;;;;;;20.02;65.21;101250.34;5022505;28;20072;-90
2023/07/11 06:22:35;;;;;;;5.15;2.33;;;;;;;20.08;65.71;101244.72;5018339;28;20527;-90
2023/07/11 06:25:00;;;;;;;15.30;2.40;;;;;;;20.15;65.52;101246.03;5000296;28;20038;-90
2023/07/11 06:27:26;;;;;;;25.83;3.10;;;;;;;20.20;65.38;101242.28;5018466;28;20030;-90
2023/07/11 06:29:51;;;;;;;6.88;2.38;;;;;;;20.28;64.77;101242.66;5024833;28;20169;-88
2023/07/11 06:32:16;;;;;;;3.67;2.10;;;;;;;20.34;63.43;101239.63;5017477;28;20116;-91
2023/07/11 06:34:41;;;;;;;11.52;2.40;;;;;;;20.40;64.02;101236.63;5023020;28;20370;-89
2023/07/11 06:37:07;;;;;;;6.18;1.98;;;;;;;20.49;63.14;101239.66;5026179;28;20042;-89
2023/07/11 06:39:32;;;;;;;5.15;2.10;;;;;;;20.54;62.15;101238.44;5024113;28;20481;-89
2023/07/11 06:41:57;;;;;;;7.38;1.95;;;;;;;20.60;63.07;101237.19;5017807;28;20021;-89
2023/07/11 06:44:23;;;;;;;6.45;2.17;;;;;;;20.64;62.43;101238.72;5015554;28;20025;-89
2023/07/11 06:46:48;;;;;;;4.25;1.90;;;;;;;20.68;63.08;101234.09;5018863;28;20385;-88
2023/07/11 06:49:13;;;;;;;3.45;2.05;;;;;;;20.73;62.50;101232.84;5021903;28;20063;-90
2023/07/11 06:51:39;;;;;;;8.10;2.08;;;;;;;20.80;63.31;101229.84;5018147;28;20033;-89
2023/07/11 06:54:04;;;;;;;4.80;2.17;;;;;;;20.86;62.94;101232.09;5023808;28;20104;-90
2023/07/11 06:56:32;;;;;;;6.00;2.05;;;;;;;20.93;62.67;101226.31;5021440;28;20500;-90
2023/07/11 06:58:58;;;;;;;3.63;1.90;;;;;;;20.98;62.63;101228.69;5015550;28;20067;-89
2023/07/11 07:01:23;;;;;;;3.70;2.00;;;;;;;21.03;62.37;101221.28;5018148;28;20381;-90
2023/07/11 07:03:49;;;;;;;3.50;1.98;;;;;;;21.08;62.10;101224.50;5019779;28;20021;-90
2023/07/11 07:06:17;;;;;;;4.60;2.33;;;;;;;21.15;62.29;101226.75;5020365;28;20083;-91
2023/07/11 07:08:42;;;;;;;5.60;2.30;;;;;;;21.22;62.16;101225.41;5014192;28;20036;-92
2023/07/11 07:11:08;;;;;;;3.83;1.80;;;;;;;21.29;61.00;101234.66;5013379;28;20025;-93
2023/07/11 07:13:34;;;;;;;7.28;2.17;;;;;;;21.34;59.89;101232.56;5010726;28;20029;-95
2023/07/11 07:16:02;;;;;;;4.13;1.80;;;;;;;21.40;60.34;101228.66;4993830;28;20478;-94
2023/07/11 07:18:34;;;;;;;6.45;2.00;;;;;;;21.47;60.80;101226.47;4991802;28;20488;-93
2023/07/11 07:21:00;;;;;;;3.53;2.10;;;;;;;21.55;59.49;101239.19;5013051;28;20029;-93
2023/07/11 07:23:27;;;;;;;9.13;1.80;;;;;;;21.62;60.33;101232.53;4995837;28;20075;-90
2023/07/11 07:25:54;;;;;;;6.28;1.75;;;;;;;21.66;58.95;101232.25;5012392;28;20485;-92
2023/07/11 07:28:20;;;;;;;3.67;1.90;;;;;;;21.74;59.04;101228.25;5015166;28;20025;-91
2023/07/11 07:30:46;;;;;;;7.85;1.98;;;;;;;21.80;58.58;101223.38;5011181;28;20104;-91
2023/07/11 07:33:11;;;;;;;3.47;1.95;;;;;;;21.89;60.42;101224.56;4995909;28;20021;-93
2023/07/11 07:35:37;;;;;;;10.43;2.00;;;;;;;21.95;58.71;101220.63;4998888;28;20042;-92
2023/07/11 07:38:03;;;;;;;8.18;2.05;;;;;;;22.02;59.02;101224.56;5013259;28;20056;-94
2023/07/11 07:40:29;;;;;;;4.13;2.00;;;;;;;22.09;58.72;101217.06;4997302;28;20036;-91
2023/07/11 07:42:54;;;;;;;4.28;1.83;;;;;;;22.18;58.50;101218.22;5013711;28;20038;-92
2023/07/11 07:45:19;;;;;;;7.28;1.88;;;;;;;22.22;54.93;101222.34;5015991;28;20105;-93
2023/07/11 07:47:45;;;;;;;6.50;1.80;;;;;;;22.24;54.75;101210.69;5013947;28;20056;-91
2023/07/11 07:50:10;;;;;;;5.68;1.70;;;;;;;22.33;57.15;101203.91;5014567;28;20029;-93
2023/07/11 07:52:35;;;;;;;67.95;4.45;;;;;;;22.42;55.44;101203.31;4998299;28;20492;-93
2023/07/11 07:55:03;;;;;;;7.65;2.10;;;;;;;22.49;55.22;101200.19;5014039;28;20029;-94
2023/07/11 07:57:28;;;;;;;5.97;2.20;;;;;;;22.54;54.34;101200.72;5002285;28;20432;-92
2023/07/11 07:59:54;;;;;;;7.32;1.88;;;;;;;22.63;54.64;101196.56;5014195;28;20038;-91
2023/07/11 08:02:19;;;;;;;6.72;1.60;;;;;;;22.68;54.13;101197.09;5012852;28;20083;-94
2023/07/11 08:04:49;;;;;;;21.77;2.38;;;;;;;22.74;54.20;101197.50;4995950;28;20034;-94
2023/07/11 08:07:15;;;;;;;5.93;1.60;;;;;;;22.84;53.08;101197.69;4995729;28;20026;-92
2023/07/11 08:09:41;;;;;;;4.68;1.65;;;;;;;22.94;51.82;101194.34;5012022;28;20055;-93
2023/07/11 08:12:09;;;;;;;6.78;1.50;;;;;;;23.04;52.18;101188.28;4997409;28;20625;-92
2023/07/11 08:14:39;;;;;;;13.40;1.70;;;;;;;23.14;53.35;101184.97;4996174;28;20014;-91
2023/07/11 08:17:05;;;;;;;3.60;1.63;;;;;;;23.22;50.85;101184.44;5005990;28;20029;-91
2023/07/11 08:19:31;;;;;;;8.98;1.75;;;;;;;23.26;51.31;101188.53;5015238;28;20847;-91
2023/07/11 08:21:56;;;;;;;12.25;1.60;;;;;;;23.31;51.68;101183.72;5011973;28;20209;-91
2023/07/11 08:24:21;;;;;;;4.68;1.40;;;;;;;23.38;50.02;101184.97;5018140;28;20474;-92
2023/07/11 08:26:47;;;;;;;3.00;1.38;;;;;;;23.43;50.50;101177.47;4992060;28;20476;-93
2023/07/11 08:29:13;;;;;;;3.00;1.40;;;;;;;23.51;50.52;101181.38;5006171;28;20052;-90
2023/07/11 08:31:38;;;;;;;3.85;1.30;;;;;;;23.59;50.24;101178.97;5025065;28;20037;-94
2023/07/11 08:34:04;;;;;;;3.25;1.50;;;;;;;23.68;49.54;101175.66;5029398;28;21176;-93
2023/07/11 08:36:29;;;;;;;7.97;1.60;;;;;;;23.79;49.07;101183.63;5041046;28;20094;-94
2023/07/11 08:38:55;;;;;;;16.48;2.00;;;;;;;23.87;50.08;101169.75;5041948;28;20049;-94
2023/07/11 08:41:49;;;;;;;5.47;1.48;;;;;;;23.95;49.92;101172.69;5010333;28;20068;-94
2023/07/11 08:44:21;;;;;;;5.68;1.30;;;;;;;24.06;49.87;101176.31;5021033;28;20041;-93
2023/07/11 08:47:25;;;;;;;5.95;1.50;;;;;;;24.11;50.05;101174.16;5003425;28;20029;-95
2023/07/11 08:49:55;;;;;;;7.97;1.75;;;;;;;24.19;49.07;101168.25;4985054;28;20082;-92
2023/07/11 08:52:23;;;;;;;5.07;1.48;;;;;;;24.27;48.33;101171.13;5017838;28;20021;-93
2023/07/11 08:54:55;;;;;;;11.48;1.70;;;;;;;24.37;47.64;101172.13;5017729;28;20017;-93
2023/07/11 08:57:23;;;;;;;6.85;1.55;;;;;;;24.46;46.53;101159.91;4997701;28;20029;-93
2023/07/11 09:00:03;;;;;;;6.80;1.30;;;;;;;24.49;47.42;101158.78;5014799;28;20481;-91
2023/07/11 09:02:38;;;;;;;4.35;1.40;;;;;;;24.52;46.67;101159.38;5011280;28;20579;-91
2023/07/11 09:05:09;;;;;;;4.30;1.25;;;;;;;24.59;45.19;101159.75;5014036;28;20064;-94
2023/07/11 09:07:41;;;;;;;5.70;1.20;;;;;;;24.66;44.94;101160.13;5011816;28;20030;-94
2023/07/11 09:10:26;;;;;;;5.93;1.42;;;;;;;24.70;45.77;101157.09;5010435;28;20029;-93
2023/07/11 09:13:45;;;;;;;4.18;1.33;;;;;;;24.78;47.54;101163.59;5012219;28;20037;-92
2023/07/11 09:16:39;;;;;;;3.03;1.30;;;;;;;24.83;46.84;101148.13;4936044;28;20563;-92
2023/07/11 09:19:16;;;;;;;11.55;1.60;;;;;;;24.86;46.08;101155.84;5018316;28;20059;-94
2023/07/11 09:22:19;;;;;;;9.63;1.80;;;;;;;24.92;46.27;101155.38;5014157;28;20029;-94
2023/07/11 09:24:51;;;;;;;6.90;1.58;;;;;;;24.95;45.33;101147.09;5014217;28;20377;-93
2023/07/11 09:27:45;;;;;;;10.07;1.60;;;;;;;25.02;45.89;101151.94;5013173;28;20034;-93
2023/07/11 09:30:23;;;;;;;4.45;1.40;;;;;;;25.15;46.37;101152.59;5012593;28;20056;-93
2023/07/11 09:32:48;;;;;;;7.50;1.40;;;;;;;25.26;45.26;101149.91;5013046;28;20073;-93
2023/07/11 09:35:31;;;;;;;8.60;1.65;;;;;;;25.35;45.34;101136.78;5012753;28;20127;-92
2023/07/11 09:38:03;;;;;;;5.65;1.55;;;;;;;25.38;45.19;101140.00;5013549;28;20141;-93
2023/07/11 09:40:34;;;;;;;5.75;1.45;;;;;;;25.47;44.90;101140.25;5011665;28;20037;-92
2023/07/11 09:43:02;;;;;;;4.05;1.50;;;;;;;25.52;43.79;101157.53;4996604;28;20493;-92
2023/07/11 09:45:33;;;;;;;4.47;1.30;;;;;;;25.58;44.17;101141.03;5011290;28;20038;-93
2023/07/11 09:48:26;;;;;;;3.33;1.20;;;;;;;25.64;43.50;101139.66;5013939;28;20021;-93
2023/07/11 09:51:16;;;;;;;8.68;1.42;;;;;;;25.67;43.70;101135.88;4997766;28;20044;-95
2023/07/11 09:53:43;;;;;;;5.72;1.75;;;;;;;25.72;43.76;101139.00;5010482;28;20033;-95
2023/07/11 09:56:14;;;;;;;6.07;1.33;;;;;;;25.74;43.83;101139.72;5014605;28;20026;-95
2023/07/11 09:58:45;;;;;;;5.38;1.45;;;;;;;25.75;43.95;101133.44;5010910;28;20036;-93
2023/07/11 10:01:27;;;;;;;;;;;;;;;25.76;45.42;101132.44;5011806;28;20022;-93
2023/07/11 10:03:55;;;;;;;8.10;1.70;;;;;;;25.74;43.74;101124.56;5009520;28;20003;-93
2023/07/11 10:06:29;;;;;;;6.25;1.90;;;;;;;25.76;43.65;101135.13;5011612;28;20045;-93
2023/07/11 10:08:55;;;;;;;5.18;1.70;;;;;;;25.75;42.92;101131.59;5011143;28;20025;-93
2023/07/11 10:11:21;;;;;;;4.40;1.67;;;;;;;25.73;43.28;101122.88;5012470;28;21971;-92
2023/07/11 10:13:47;;;;;;;4.00;1.60;;;;;;;25.72;43.68;101125.69;5009557;28;20026;-91
2023/07/11 10:16:20;;;;;;;4.43;1.60;;;;;;;25.73;44.53;101122.06;5009333;28;20083;-93
2023/07/11 10:18:46;;;;;;;4.22;1.60;;;;;;;25.79;44.41;101121.50;5013543;28;20038;-92
2023/07/11 10:21:24;;;;;;;3.45;1.67;;;;;;;25.83;45.26;101117.59;5011365;28;20022;-95
2023/07/11 10:23:52;;;;;;;6.18;1.90;;;;;;;25.82;43.84;101121.25;5009115;28;20029;-90
2023/07/11 10:26:17;;;;;;;5.15;1.77;;;;;;;25.85;43.57;101112.97;5009018;28;20033;-93
2023/07/11 10:31:36;;;;;;;2.70;1.50;;;;;;;25.95;44.68;101113.03;5002516;28;20041;-94
2023/07/11 10:34:15;;;;;;;3.75;1.42;;;;;;;26.03;45.16;101107.03;5014434;28;20025;-95
2023/07/11 10:36:46;;;;;;;4.85;1.70;;;;;;;26.08;44.25;101107.47;5013771;28;20038;-95
2023/07/11 10:39:34;;;;;;;7.65;1.90;;;;;;;26.12;44.71;101090.28;4998308;28;20721;-92
2023/07/11 10:42:22;;;;;;;29.63;2.67;;;;;;;26.12;44.17;101100.94;5015828;28;20042;-94
2023/07/11 10:44:52;;;;;;;9.23;1.95;;;;;;;26.10;42.36;101094.00;5015964;28;20044;-92
2023/07/11 10:47:27;;;;;;;5.78;1.85;;;;;;;26.13;43.94;101096.44;5015130;28;20041;-92
2023/07/11 10:49:54;;;;;;;5.65;2.08;;;;;;;26.13;43.03;101086.59;4997535;28;20029;-92
2023/07/11 10:52:23;;;;;;;8.43;2.20;;;;;;;26.19;42.54;101086.06;5030140;28;20078;-92
2023/07/11 10:54:55;;;;;;;5.03;1.83;;;;;;;26.27;42.93;101084.56;5039031;28;20028;-91
2023/07/11 10:57:37;;;;;;;5.25;1.50;;;;;;;26.38;43.44;101084.44;5018254;28;21301;-86
2023/07/11 11:14:13;;;;;;;3.65;1.80;;;;;;;26.77;43.14;101075.63;4859999;22;20052;-96
2023/07/11 11:17:10;;;;;;;62.97;4.50;;;;;;;26.81;43.36;101063.72;5028964;28;20045;-95
2023/07/11 11:25:53;;;;;;;6.05;1.70;;;;;;;26.95;42.72;101054.44;5038653;22;20058;-95
2023/07/11 11:33:56;;;;;;;12.45;2.40;;;;;;;27.03;41.06;101048.38;5644502;23;19921;-93
2023/07/11 11:36:21;;;;;;;7.32;1.80;;;;;;;27.02;40.35;101044.84;5042786;28;20021;-96
2023/07/11 11:47:24;;;;;;;19.38;2.58;;;;;;;27.19;40.33;101034.44;4938627;26;20035;-96
2023/07/11 11:57:43;;;;;;;7.68;1.85;;;;;;;27.46;38.35;101035.53;5279378;22;20058;-95
2023/07/11 12:01:07;;;;;;;11.30;2.10;;;;;;;27.52;39.39;101035.78;5010895;28;20404;-93
2023/07/11 12:21:52;;;;;;;;;;;;;;;;;;;;;
2023/07/11 12:32:54;;;;;;;6.53;1.90;;;;;;;27.86;39.44;101000.47;5001138;28;20089;-92
2023/07/11 15:13:10;;;;;;;4.93;1.70;;;;;;;30.01;37.03;100850.16;6008850;23;20033;31
2023/07/11 15:15:40;;;;;;;3.30;1.40;;;;;;;30.10;37.42;100843.78;5874578;23;20384;31
2023/07/11 15:26:36;;;;;;;4.13;1.55;;;;;;;30.46;37.89;100837.19;5005114;28;20021;-93
2023/07/11 15:29:03;;;;;;;3.47;1.63;;;;;;;30.49;36.67;100836.88;5024506;28;20516;-93
2023/07/11 15:40:01;;;;;;;2.88;1.58;;;;;;;30.60;37.24;100833.00;5033223;23;20058;-95